Time;durP1;ratioP1;P1;durP2;ratioP2;P2;SDS_P1;SDS_P2;PMS_P1;PMS_P2;Temp;Humidity;BMP_temperature;BMP_pressure;BME280_temperature;BME280_humidity;BME280_pressure;Samples;Min_cycle;Max_cycle;Signal;HPM_P1;HPM_P2
2024/01/22 00:00:50;;;;;;;4.55;2.70;;;7.80;99.90;;;;;;4879934;29;20131;-76
2024/01/22 00:03:17;;;;;;;4.03;2.90;;;7.90;99.90;;;;;;4890917;29;20401;-76
2024/01/22 00:05:44;;;;;;;6.55;2.78;;;7.90;99.90;;;;;;4883009;29;20075;-76
2024/01/22 00:08:12;;;;;;;8.45;3.28;;;8.00;99.90;;;;;;4879921;29;20048;-76
2024/01/22 00:10:39;;;;;;;5.40;3.00;;;8.00;99.90;;;;;;4895162;29;20049;-76
2024/01/22 00:13:06;;;;;;;6.82;2.90;;;8.10;99.90;;;;;;4882919;29;20482;-76
2024/01/22 00:15:33;;;;;;;5.95;2.55;;;8.10;99.90;;;;;;4880547;29;20489;-76
2024/01/22 00:18:00;;;;;;;5.03;3.03;;;8.10;99.90;;;;;;4899414;29;20052;-77
2024/01/22 00:20:28;;;;;;;4.65;2.83;;;8.20;99.90;;;;;;4882633;29;20041;-76
2024/01/22 00:22:54;;;;;;;6.47;3.10;;;8.20;99.90;;;;;;4898146;29;20072;-77
2024/01/22 00:25:22;;;;;;;6.63;2.97;;;8.20;99.90;;;;;;4882681;29;20047;-76
2024/01/22 00:27:49;;;;;;;8.35;3.40;;;8.30;99.90;;;;;;4881719;29;20113;-76
2024/01/22 00:30:16;;;;;;;7.43;3.20;;;8.30;99.90;;;;;;4899138;29;20542;-76
2024/01/22 00:32:43;;;;;;;8.20;3.70;;;8.40;99.90;;;;;;4879144;29;20049;-76
2024/01/22 00:35:11;;;;;;;5.18;2.83;;;8.40;99.90;;;;;;4868176;29;20493;-76
2024/01/22 00:37:38;;;;;;;6.25;3.13;;;8.50;99.90;;;;;;4882534;29;20048;-76
2024/01/22 00:40:06;;;;;;;5.18;3.60;;;8.50;99.90;;;;;;4882192;29;20438;-76
2024/01/22 00:42:33;;;;;;;8.82;3.00;;;8.50;99.90;;;;;;4879176;29;20064;-76
2024/01/22 00:45:00;;;;;;;5.47;3.08;;;8.60;99.90;;;;;;4877978;29;20486;-76
2024/01/22 00:47:27;;;;;;;5.85;3.10;;;8.60;99.90;;;;;;4882142;29;20425;-76
2024/01/22 00:49:54;;;;;;;8.07;3.13;;;8.60;99.90;;;;;;4882281;29;20041;-76
2024/01/22 00:52:21;;;;;;;5.22;2.83;;;8.60;99.90;;;;;;4884416;29;20409;-76
2024/01/22 00:54:48;;;;;;;5.25;2.70;;;8.70;99.90;;;;;;4897509;29;20052;-76
2024/01/22 00:57:15;;;;;;;6.47;3.10;;;8.70;99.90;;;;;;4863580;29;20049;-76
2024/01/22 00:59:42;;;;;;;5.68;2.42;;;8.70;99.90;;;;;;4888637;29;20486;-76
2024/01/22 01:02:09;;;;;;;7.90;2.95;;;8.70;99.90;;;;;;4881929;29;20489;-76
2024/01/22 01:04:36;;;;;;;4.97;2.30;;;8.70;99.90;;;;;;4866498;29;20044;-77
2024/01/22 01:07:03;;;;;;;6.43;2.72;;;8.70;99.90;;;;;;4897400;29;20072;-76
2024/01/22 01:09:32;;;;;;;4.68;2.70;;;8.70;99.90;;;;;;4882013;29;20048;-76
2024/01/22 01:11:59;;;;;;;6.60;2.53;;;8.80;99.90;;;;;;4897167;29;20548;-76
2024/01/22 01:14:26;;;;;;;6.32;2.58;;;8.80;99.90;;;;;;4881759;29;20083;-76
2024/01/22 01:16:53;;;;;;;4.47;2.13;;;8.80;99.90;;;;;;4898470;29;20052;-76
2024/01/22 01:19:20;;;;;;;8.90;2.83;;;8.80;99.90;;;;;;4881641;29;20052;-76
2024/01/22 01:21:47;;;;;;;5.40;2.65;;;8.90;99.90;;;;;;4878563;29;20128;-76
2024/01/22 01:24:14;;;;;;;7.15;2.25;;;8.90;99.90;;;;;;4879617;29;20056;-76
2024/01/22 01:26:42;;;;;;;4.40;2.08;;;9.00;99.90;;;;;;4898217;29;20520;-76
2024/01/22 01:29:10;;;;;;;4.40;2.35;;;9.00;99.90;;;;;;4896968;29;20048;-76
2024/01/22 01:31:37;;;;;;;3.45;1.90;;;9.00;99.90;;;;;;4896914;29;20061;-76
2024/01/22 01:34:04;;;;;;;5.63;2.50;;;9.10;99.90;;;;;;4896888;29;20121;-76
2024/01/22 01:36:34;;;;;;;3.67;2.33;;;9.10;99.90;;;;;;4881946;29;20500;-76
2024/01/22 01:39:01;;;;;;;4.90;2.40;;;9.10;99.90;;;;;;4881436;29;20067;-76
2024/01/22 01:41:28;;;;;;;9.13;2.42;;;9.10;99.90;;;;;;4896500;29;20557;-76
2024/01/22 01:43:55;;;;;;;4.57;1.80;;;9.20;99.90;;;;;;4896458;29;20049;-76
2024/01/22 01:46:22;;;;;;;6.60;2.47;;;9.20;99.90;;;;;;4880577;29;20057;-76
2024/01/22 01:48:50;;;;;;;3.67;2.00;;;9.20;99.90;;;;;;4881462;29;20044;-76
2024/01/22 01:51:17;;;;;;;5.78;2.60;;;9.20;99.90;;;;;;4897825;29;20040;-76
2024/01/22 01:53:46;;;;;;;3.97;2.20;;;9.10;99.90;;;;;;4896649;29;20056;-76
2024/01/22 01:56:15;;;;;;;4.50;2.05;;;9.10;99.90;;;;;;4896796;29;20053;-76
2024/01/22 01:58:42;;;;;;;5.07;2.28;;;9.10;99.90;;;;;;4896560;29;20466;-76
2024/01/22 02:01:09;;;;;;;4.95;2.28;;;9.00;99.90;;;;;;4862684;29;20120;-76
2024/01/22 02:03:36;;;;;;;4.40;2.13;;;9.00;99.90;;;;;;4891338;29;20101;-76
2024/01/22 02:06:04;;;;;;;3.63;1.83;;;9.00;99.90;;;;;;4897777;29;20049;-76
2024/01/22 02:08:31;;;;;;;4.13;2.38;;;9.00;99.90;;;;;;4896476;29;20076;-76
2024/01/22 02:10:58;;;;;;;2.70;1.65;;;8.90;99.90;;;;;;4865626;29;20072;-76
2024/01/22 02:13:28;;;;;;;6.63;2.40;;;8.90;99.90;;;;;;4896690;29;20049;-76
2024/01/22 02:15:55;;;;;;;3.75;1.95;;;8.90;99.90;;;;;;4881399;29;20044;-76
2024/01/22 02:18:22;;;;;;;4.13;1.50;;;8.90;99.90;;;;;;4881081;29;20052;-77
2024/01/22 02:20:50;;;;;;;4.13;2.20;;;8.90;99.90;;;;;;4880919;29;20045;-77
2024/01/22 02:23:17;;;;;;;3.40;1.88;;;8.90;99.90;;;;;;4896421;29;20072;-76
2024/01/22 02:25:44;;;;;;;5.30;1.90;;;9.00;99.90;;;;;;4880840;29;20490;-75
2024/01/22 02:28:12;;;;;;;4.35;2.08;;;9.10;99.90;;;;;;4897612;29;20044;-75
2024/01/22 02:30:39;;;;;;;4.03;1.67;;;9.10;99.90;;;;;;4865285;29;20063;-75
2024/01/22 02:33:06;;;;;;;3.17;1.70;;;9.20;99.90;;;;;;4896278;29;20041;-76
2024/01/22 02:35:33;;;;;;;4.38;1.40;;;9.20;99.90;;;;;;4869331;29;20059;-76
2024/01/22 02:38:00;;;;;;;3.75;1.65;;;9.30;99.90;;;;;;4880723;29;20112;-76
2024/01/22 02:40:27;;;;;;;5.25;1.40;;;9.30;99.90;;;;;;4883220;29;20053;-75
2024/01/22 02:42:54;;;;;;;3.92;1.33;;;9.40;99.90;;;;;;4896090;29;20040;-75
2024/01/22 02:45:21;;;;;;;3.95;1.10;;;9.40;99.90;;;;;;4868371;29;20120;-75
2024/01/22 02:47:48;;;;;;;3.65;1.83;;;9.50;99.90;;;;;;4894946;29;20401;-76
2024/01/22 02:50:15;;;;;;;4.28;1.52;;;9.50;99.90;;;;;;4865317;29;20449;-76
2024/01/22 02:52:42;;;;;;;5.10;1.38;;;9.50;99.90;;;;;;4897228;29;20049;-76
2024/01/22 02:55:09;;;;;;;5.22;1.67;;;9.50;99.90;;;;;;4865356;29;20416;-75
2024/01/22 02:57:36;;;;;;;3.88;1.63;;;9.40;99.90;;;;;;4899916;29;20051;-76
2024/01/22 03:00:05;;;;;;;3.95;1.70;;;9.30;99.90;;;;;;4880849;29;20045;-75
2024/01/22 03:02:32;;;;;;;3.45;1.55;;;9.20;99.90;;;;;;4899281;29;20056;-79
2024/01/22 03:05:00;;;;;;;6.30;1.95;;;9.10;99.90;;;;;;4883588;29;20448;-75
2024/01/22 03:07:27;;;;;;;4.88;1.77;;;9.00;99.90;;;;;;4899387;29;20037;-74
2024/01/22 03:09:54;;;;;;;8.20;1.70;;;9.00;99.90;;;;;;4899273;29;20041;-74
2024/01/22 03:12:21;;;;;;;3.50;1.15;;;9.00;99.90;;;;;;4884045;29;20052;-74
2024/01/22 03:14:48;;;;;;;5.07;1.90;;;9.00;99.90;;;;;;4883789;29;20056;-74
2024/01/22 03:17:15;;;;;;;3.97;1.73;;;9.00;99.90;;;;;;4883581;29;20465;-74
2024/01/22 03:19:42;;;;;;;4.28;1.65;;;9.00;99.90;;;;;;4884026;29;20044;-75
2024/01/22 03:22:10;;;;;;;4.72;1.73;;;9.00;99.90;;;;;;4852856;29;20062;-75
2024/01/22 03:24:37;;;;;;;3.33;1.73;;;9.00;99.90;;;;;;4883293;29;20417;-74
2024/01/22 03:27:04;;;;;;;4.22;1.75;;;9.00;99.90;;;;;;4883404;29;20096;-78
2024/01/22 03:29:31;;;;;;;3.25;1.30;;;9.00;99.90;;;;;;4883404;29;20049;-73
2024/01/22 03:31:58;;;;;;;3.35;1.63;;;9.00;99.90;;;;;;4879051;29;20040;-74
2024/01/22 03:34:25;;;;;;;2.63;1.40;;;9.00;99.90;;;;;;4880250;29;20089;-74
2024/01/22 03:36:52;;;;;;;3.40;1.70;;;9.10;99.90;;;;;;4881885;29;20092;-74
2024/01/22 03:39:19;;;;;;;2.05;1.10;;;9.10;99.90;;;;;;4883290;29;20053;-75
2024/01/22 03:41:46;;;;;;;3.50;1.55;;;9.10;99.90;;;;;;4882751;29;20063;-75
2024/01/22 03:44:13;;;;;;;3.58;1.45;;;9.20;99.90;;;;;;4898508;29;20048;-74
2024/01/22 03:46:40;;;;;;;4.90;1.40;;;9.20;99.90;;;;;;4898405;29;20045;-74
2024/01/22 03:49:08;;;;;;;4.07;1.50;;;9.20;99.90;;;;;;4898668;29;20109;-74
2024/01/22 03:51:35;;;;;;;2.92;1.25;;;9.20;99.90;;;;;;4898574;29;20040;-75
2024/01/22 03:54:02;;;;;;;2.85;1.17;;;9.30;99.90;;;;;;4892877;29;20057;-75
2024/01/22 03:56:29;;;;;;;2.90;1.05;;;9.20;99.90;;;;;;4864717;29;20105;-76
2024/01/22 03:58:57;;;;;;;2.28;1.17;;;9.20;99.90;;;;;;4898118;29;20040;-77
2024/01/22 04:01:24;;;;;;;2.58;1.33;;;9.20;99.90;;;;;;4898611;29;20044;-76
2024/01/22 04:03:52;;;;;;;2.90;1.38;;;9.20;99.90;;;;;;4898476;29;20041;-75
2024/01/22 04:06:19;;;;;;;2.75;1.13;;;9.20;99.90;;;;;;4898453;29;20040;-77
2024/01/22 04:08:46;;;;;;;2.80;1.05;;;9.20;99.90;;;;;;4897746;29;20041;-77
2024/01/22 04:11:13;;;;;;;2.50;1.40;;;9.20;99.90;;;;;;4879636;29;20136;-79
2024/01/22 04:13:40;;;;;;;4.32;1.75;;;9.20;99.90;;;;;;4867635;29;20064;-79
2024/01/22 04:16:12;;;;;;;2.30;1.00;;;9.20;99.90;;;;;;4879552;29;20084;-79
2024/01/22 04:18:41;;;;;;;3.95;1.40;;;9.20;99.90;;;;;;4890915;29;20455;-78
2024/01/22 04:21:09;;;;;;;2.70;0.95;;;9.20;99.90;;;;;;4882279;29;20520;-78
2024/01/22 04:23:36;;;;;;;3.92;1.40;;;9.20;99.90;;;;;;4882492;29;20049;-78
2024/01/22 04:26:05;;;;;;;3.20;1.42;;;9.20;99.90;;;;;;4899035;29;20461;-77
2024/01/22 04:28:32;;;;;;;2.97;1.10;;;9.30;99.90;;;;;;4882818;29;20053;-78
2024/01/22 04:30:59;;;;;;;4.25;1.35;;;9.30;99.90;;;;;;4882413;29;20060;-79
2024/01/22 04:33:26;;;;;;;4.13;1.33;;;9.30;99.90;;;;;;4867587;29;20076;-78
2024/01/22 04:35:53;;;;;;;2.92;1.23;;;9.30;99.90;;;;;;4898208;29;20055;-78
2024/01/22 04:38:20;;;;;;;2.13;1.20;;;9.30;99.90;;;;;;4897829;29;20085;-79
2024/01/22 04:40:47;;;;;;;2.40;1.40;;;9.30;99.90;;;;;;4882158;29;20565;-76
2024/01/22 04:43:15;;;;;;;2.50;1.10;;;9.40;99.90;;;;;;4882550;29;20100;-77
2024/01/22 04:45:42;;;;;;;2.47;1.25;;;9.40;99.90;;;;;;4898577;29;20044;-76
2024/01/22 04:48:09;;;;;;;2.65;1.33;;;9.50;99.90;;;;;;4878981;29;20048;-76
2024/01/22 04:50:37;;;;;;;2.35;1.30;;;9.50;99.90;;;;;;4880954;29;20109;-76
2024/01/22 04:53:04;;;;;;;1.67;0.60;;;9.60;99.90;;;;;;4889662;29;20055;-76
2024/01/22 04:55:31;;;;;;;2.92;1.20;;;9.50;99.90;;;;;;4897297;29;20456;-76
2024/01/22 04:58:02;;;;;;;2.33;1.10;;;9.60;99.90;;;;;;4898510;29;20048;-76
2024/01/22 05:00:29;;;;;;;3.10;1.13;;;9.60;99.90;;;;;;4897392;29;20468;-75
2024/01/22 05:02:56;;;;;;;3.13;1.10;;;9.60;99.90;;;;;;4897307;29;20052;-76
2024/01/22 05:05:23;;;;;;;2.42;0.90;;;9.70;99.90;;;;;;4897203;29;20055;-76
2024/01/22 05:07:50;;;;;;;2.35;1.05;;;9.70;99.90;;;;;;4878560;29;20072;-76
2024/01/22 05:10:19;;;;;;;3.85;1.25;;;9.70;99.90;;;;;;4882148;29;20056;-76
2024/01/22 05:12:46;;;;;;;3.70;1.00;;;9.70;99.90;;;;;;4866448;29;20060;-76
2024/01/22 05:15:13;;;;;;;3.20;0.82;;;9.70;99.90;;;;;;4881816;29;20056;-77
2024/01/22 05:17:40;;;;;;;2.20;0.75;;;9.70;99.90;;;;;;4897414;29;20100;-76
2024/01/22 05:20:08;;;;;;;3.50;1.25;;;9.70;99.90;;;;;;4880768;29;20044;-76
2024/01/22 05:22:36;;;;;;;2.42;1.00;;;9.70;99.90;;;;;;4898156;29;20052;-76
2024/01/22 05:25:03;;;;;;;3.25;0.90;;;9.80;99.90;;;;;;4898260;29;20108;-76
2024/01/22 05:27:30;;;;;;;3.75;1.08;;;9.80;99.90;;;;;;4896974;29;20044;-76
2024/01/22 05:29:57;;;;;;;2.25;0.70;;;9.80;99.90;;;;;;4896866;29;20040;-76
2024/01/22 05:32:24;;;;;;;2.25;0.77;;;9.80;99.90;;;;;;4896891;29;20125;-76
2024/01/22 05:34:51;;;;;;;2.17;0.80;;;9.90;99.90;;;;;;4864777;29;20413;-76
2024/01/22 05:37:19;;;;;;;4.80;1.00;;;9.90;99.90;;;;;;4878135;29;20045;-76
2024/01/22 05:39:45;;;;;;;1.30;0.80;;;9.90;99.90;;;;;;4891436;29;20108;-76
2024/01/22 05:42:13;;;;;;;1.65;0.70;;;9.90;99.90;;;;;;4865526;29;20053;-75
2024/01/22 05:44:40;;;;;;;2.03;0.90;;;9.90;99.90;;;;;;4891014;29;20119;-75
2024/01/22 05:47:07;;;;;;;2.22;0.63;;;9.90;99.90;;;;;;4881037;29;20049;-77
2024/01/22 05:49:34;;;;;;;1.90;0.75;;;9.90;99.90;;;;;;4897850;29;20036;-77
2024/01/22 05:52:01;;;;;;;3.33;0.70;;;10.00;99.90;;;;;;4896609;29;20123;-76
2024/01/22 05:54:29;;;;;;;1.33;0.70;;;10.00;99.90;;;;;;4880976;29;20053;-76
2024/01/22 05:56:57;;;;;;;4.28;0.93;;;10.10;99.90;;;;;;4864188;29;20056;-77
2024/01/22 05:59:24;;;;;;;5.43;0.70;;;10.10;99.90;;;;;;4862448;29;20467;-77
2024/01/22 06:01:56;;;;;;;4.75;0.73;;;10.10;99.90;;;;;;4875710;29;20450;-76
2024/01/22 06:04:24;;;;;;;2.50;1.30;;;10.20;99.90;;;;;;4897624;29;20051;-77
2024/01/22 06:06:51;;;;;;;1.60;0.60;;;10.20;99.90;;;;;;4880886;29;20045;-76
2024/01/22 06:09:18;;;;;;;2.08;0.50;;;10.20;99.90;;;;;;4865584;29;20076;-76
2024/01/22 06:11:45;;;;;;;2.00;0.60;;;10.20;99.90;;;;;;4896393;29;20040;-76
2024/01/22 06:14:12;;;;;;;1.35;0.70;;;10.20;99.90;;;;;;4881106;29;20374;-76
2024/01/22 06:16:39;;;;;;;1.92;0.80;;;10.30;99.90;;;;;;4865338;29;20056;-76
2024/01/22 06:19:06;;;;;;;1.23;0.65;;;10.30;99.90;;;;;;4880965;29;20066;-75
2024/01/22 06:21:33;;;;;;;2.17;0.80;;;10.40;99.90;;;;;;4880488;29;20096;-76
2024/01/22 06:24:00;;;;;;;2.17;0.50;;;10.50;99.90;;;;;;4896239;29;20573;-76
2024/01/22 06:26:29;;;;;;;3.50;0.47;;;10.50;99.90;;;;;;4880115;29;20101;-75
2024/01/22 06:28:58;;;;;;;1.77;0.40;;;10.60;99.90;;;;;;4880997;29;20055;-75
2024/01/22 06:31:25;;;;;;;1.33;0.40;;;10.60;99.90;;;;;;4897087;29;20044;-75
2024/01/22 06:33:52;;;;;;;1.65;0.60;;;10.70;99.90;;;;;;4884460;29;20047;-75
2024/01/22 06:36:20;;;;;;;2.20;0.47;;;10.70;99.90;;;;;;4899859;29;20045;-75
2024/01/22 06:38:47;;;;;;;3.72;0.50;;;10.80;99.90;;;;;;4883166;29;20053;-75
2024/01/22 06:41:15;;;;;;;1.33;0.30;;;10.80;99.90;;;;;;4899878;29;20064;-75
2024/01/22 06:43:42;;;;;;;2.33;0.40;;;10.90;99.90;;;;;;4899656;29;20127;-75
2024/01/22 06:46:09;;;;;;;4.05;0.43;;;10.90;99.90;;;;;;4883801;29;20056;-75
2024/01/22 06:48:36;;;;;;;1.95;0.52;;;10.90;99.90;;;;;;4883900;29;20049;-75
2024/01/22 06:51:04;;;;;;;5.15;1.25;;;10.90;99.90;;;;;;4899337;29;20040;-77
2024/01/22 06:53:33;;;;;;;2.97;0.50;;;10.90;99.90;;;;;;4883971;29;20072;-77
2024/01/22 06:56:00;;;;;;;2.17;0.60;;;10.90;99.90;;;;;;4899440;29;20120;-78
2024/01/22 06:58:28;;;;;;;2.85;0.50;;;10.90;99.90;;;;;;4881257;29;20045;-77
2024/01/22 07:00:55;;;;;;;2.00;0.30;;;10.90;99.90;;;;;;4874740;29;20406;-78
2024/01/22 07:03:22;;;;;;;2.03;0.45;;;10.90;99.90;;;;;;4899165;29;20052;-77
2024/01/22 07:05:49;;;;;;;0.80;0.40;;;10.80;99.90;;;;;;4880356;29;20169;-78
2024/01/22 07:08:17;;;;;;;2.00;0.30;;;10.80;99.90;;;;;;4900389;29;20052;-78
2024/01/22 07:10:44;;;;;;;1.95;0.50;;;10.80;99.90;;;;;;4868264;29;20135;-78
2024/01/22 07:13:11;;;;;;;1.60;0.50;;;10.80;99.90;;;;;;4883804;29;20052;-78
2024/01/22 07:15:39;;;;;;;1.25;0.40;;;10.80;99.90;;;;;;4899170;29;20457;-78
2024/01/22 07:18:07;;;;;;;0.82;0.30;;;10.80;99.90;;;;;;4880516;29;20148;-78
2024/01/22 07:20:34;;;;;;;1.55;0.40;;;10.80;99.90;;;;;;4883895;29;20461;-79
2024/01/22 07:23:01;;;;;;;2.80;0.50;;;10.70;99.90;;;;;;4883548;29;20052;-78
2024/01/22 07:25:31;;;;;;;3.28;0.50;;;10.70;99.90;;;;;;4898948;29;20045;-78
2024/01/22 07:27:58;;;;;;;6.15;0.77;;;10.70;99.90;;;;;;4883262;29;20446;-77
2024/01/22 07:30:25;;;;;;;3.90;0.50;;;10.80;99.90;;;;;;4898988;29;20144;-77
2024/01/22 07:32:56;;;;;;;3.45;0.50;;;10.70;99.90;;;;;;4883180;29;20045;-78
2024/01/22 07:35:24;;;;;;;5.60;0.65;;;10.80;99.90;;;;;;4853149;29;20471;-77
2024/01/22 07:37:52;;;;;;;2.67;0.63;;;10.80;99.90;;;;;;4899079;29;20076;-84
2024/01/22 07:40:19;;;;;;;5.13;0.60;;;10.80;99.90;;;;;;4899280;29;20049;-85
2024/01/22 07:42:47;;;;;;;3.40;0.52;;;10.80;99.90;;;;;;4882773;29;20096;-84
2024/01/22 07:45:14;;;;;;;2.58;0.70;;;10.90;99.90;;;;;;4883606;29;20053;-84
2024/01/22 07:47:43;;;;;;;7.72;1.50;;;10.90;99.90;;;;;;4867942;29;20070;-83
2024/01/22 07:50:10;;;;;;;5.70;1.00;;;10.90;99.90;;;;;;4898761;29;20076;-83
2024/01/22 07:52:38;;;;;;;2.65;0.50;;;10.90;99.90;;;;;;4883299;29;20064;-84
2024/01/22 07:55:07;;;;;;;4.13;0.73;;;11.00;99.90;;;;;;4899828;29;20045;-83
2024/01/22 07:57:34;;;;;;;3.95;0.57;;;11.00;99.90;;;;;;4883539;29;20081;-84
2024/01/22 08:00:08;;;;;;;7.13;0.88;;;11.00;99.90;;;;;;4883167;29;20119;-84
2024/01/22 08:02:37;;;;;;;3.75;0.60;;;11.00;99.90;;;;;;4868598;29;20549;-84
2024/01/22 08:05:06;;;;;;;6.97;1.20;;;11.00;99.90;;;;;;4898919;29;20055;-84
2024/01/22 08:07:36;;;;;;;6.40;0.75;;;11.00;99.90;;;;;;4879790;29;20049;-82
2024/01/22 08:10:03;;;;;;;4.57;0.63;;;11.00;99.90;;;;;;4864284;29;20056;-84
2024/01/22 08:12:31;;;;;;;6.38;0.93;;;11.00;99.90;;;;;;4879442;29;20049;-80
2024/01/22 08:14:58;;;;;;;6.22;1.05;;;11.10;99.90;;;;;;4873344;29;20041;-80
2024/01/22 08:17:25;;;;;;;9.50;1.67;;;11.10;99.90;;;;;;4899200;29;20100;-80
2024/01/22 08:19:53;;;;;;;6.28;0.80;;;11.20;99.90;;;;;;4899285;29;20382;-80
2024/01/22 08:22:20;;;;;;;6.25;0.90;;;11.10;99.90;;;;;;4866999;29;20402;-81
2024/01/22 08:24:48;;;;;;;8.70;1.55;;;11.10;99.90;;;;;;4897811;29;20045;-80
2024/01/22 08:27:15;;;;;;;7.60;1.33;;;11.10;99.90;;;;;;4897677;29;20080;-80
2024/01/22 08:29:42;;;;;;;5.18;0.93;;;11.10;99.90;;;;;;4882208;29;20064;-80
2024/01/22 08:32:09;;;;;;;5.50;1.27;;;11.10;99.90;;;;;;4897724;29;20167;-80
2024/01/22 08:34:38;;;;;;;4.95;0.85;;;11.10;99.90;;;;;;4897726;29;20441;-80
2024/01/22 08:37:06;;;;;;;7.38;1.00;;;11.10;99.90;;;;;;4886099;29;20127;-79
2024/01/22 08:39:36;;;;;;;6.45;1.30;;;11.10;99.90;;;;;;4897572;29;20401;-79
2024/01/22 08:42:03;;;;;;;5.90;1.70;;;11.10;99.90;;;;;;4882131;29;20095;-79
2024/01/22 08:44:31;;;;;;;7.05;1.13;;;11.20;99.90;;;;;;4897453;29;20052;-81
2024/01/22 08:46:58;;;;;;;8.77;2.22;;;11.20;99.90;;;;;;4897186;29;20409;-81
2024/01/22 08:49:25;;;;;;;5.60;0.68;;;11.20;99.90;;;;;;4898857;29;20050;-81
2024/01/22 08:51:52;;;;;;;6.97;1.20;;;11.20;99.90;;;;;;4881712;29;20048;-81
2024/01/22 08:54:19;;;;;;;9.70;1.45;;;11.20;99.90;;;;;;4881494;29;20063;-78
2024/01/22 08:56:46;;;;;;;4.20;1.10;;;11.30;99.90;;;;;;4878672;29;20468;-78
2024/01/22 08:59:14;;;;;;;6.45;1.35;;;11.30;99.90;;;;;;4878623;29;20056;-79
2024/01/22 09:01:42;;;;;;;6.63;1.25;;;11.30;99.90;;;;;;4890600;29;20056;-79
2024/01/22 09:04:09;;;;;;;5.82;1.10;;;11.30;99.90;;;;;;4897202;29;20045;-79
2024/01/22 09:06:36;;;;;;;7.60;1.15;;;11.30;99.90;;;;;;4897185;29;20087;-79
2024/01/22 09:09:05;;;;;;;12.82;1.95;;;11.30;99.90;;;;;;4897108;29;20489;-79
2024/01/22 09:11:32;;;;;;;11.52;1.95;;;11.30;99.90;;;;;;4897041;29;20055;-78
2024/01/22 09:13:59;;;;;;;4.85;1.80;;;11.30;99.90;;;;;;4896882;29;20091;-78
2024/01/22 09:16:27;;;;;;;9.80;1.90;;;11.30;99.90;;;;;;4898274;29;20400;-80
2024/01/22 09:18:55;;;;;;;7.35;1.83;;;11.30;99.90;;;;;;4898459;29;20423;-87
2024/01/22 09:21:23;;;;;;;9.73;1.50;;;11.20;99.90;;;;;;4882523;29;20098;-86
2024/01/22 09:23:51;;;;;;;7.63;1.30;;;11.10;99.90;;;;;;4882075;29;20049;-85
2024/01/22 09:26:18;;;;;;;9.38;1.92;;;11.10;99.90;;;;;;4897922;29;20048;-89
2024/01/22 09:28:45;;;;;;;7.32;1.85;;;11.00;99.90;;;;;;4881751;29;20499;-86
2024/01/22 09:31:12;;;;;;;9.38;1.40;;;11.00;99.90;;;;;;4866082;29;20041;-83
2024/01/22 09:33:39;;;;;;;7.22;1.70;;;11.00;99.90;;;;;;4897088;29;20040;-83
2024/01/22 09:36:07;;;;;;;9.88;1.75;;;11.00;99.90;;;;;;4881447;29;20048;-83
2024/01/22 09:38:34;;;;;;;9.27;1.67;;;11.00;99.90;;;;;;4878582;29;20501;-83
2024/01/22 09:41:01;;;;;;;9.40;2.03;;;11.00;99.90;;;;;;4872771;29;20044;-85
2024/01/22 09:43:28;;;;;;;9.27;1.63;;;10.90;99.90;;;;;;4878371;29;20514;-90
2024/01/22 09:45:58;;;;;;;10.02;2.38;;;10.90;99.90;;;;;;4865049;29;20101;-92
2024/01/22 09:48:26;;;;;;;12.57;1.75;;;10.80;99.90;;;;;;4866373;29;20056;-90
2024/01/22 09:50:53;;;;;;;9.45;1.63;;;10.70;99.90;;;;;;4882637;29;20056;-87
2024/01/22 09:53:21;;;;;;;11.27;1.27;;;10.50;99.90;;;;;;4897523;29;20060;-86
2024/01/22 09:55:52;;;;;;;10.85;1.30;;;10.30;99.90;;;;;;4867364;29;20056;-87
2024/01/22 09:58:26;;;;;;;12.00;1.95;;;10.10;99.90;;;;;;4882323;29;20096;-88
2024/01/22 10:01:02;;;;;;;9.35;1.35;;;9.90;99.90;;;;;;4860655;29;20129;-90
2024/01/22 10:03:32;;;;;;;8.13;1.13;;;9.80;99.90;;;;;;4882615;29;20135;-90
2024/01/22 10:06:00;;;;;;;13.50;1.55;;;9.70;99.90;;;;;;4879553;29;20053;-89
2024/01/22 10:08:28;;;;;;;9.15;0.80;;;9.60;99.90;;;;;;4867859;29;20516;-89
2024/01/22 10:10:56;;;;;;;9.23;0.90;;;9.60;99.90;;;;;;4892711;29;20119;-91
2024/01/22 10:13:23;;;;;;;9.10;1.63;;;9.60;99.90;;;;;;4886496;29;20352;-92
2024/01/22 10:15:51;;;;;;;6.97;1.33;;;9.50;99.90;;;;;;4885675;29;20079;-92
2024/01/22 10:18:18;;;;;;;7.28;1.10;;;9.50;99.90;;;;;;4876483;29;20048;-90
2024/01/22 10:20:50;;;;;;;8.43;0.88;;;9.50;99.90;;;;;;4886256;29;20045;-90
2024/01/22 10:23:19;;;;;;;8.63;1.15;;;9.50;99.90;;;;;;4886262;29;20045;-90
2024/01/22 10:25:46;;;;;;;8.70;1.65;;;9.50;99.90;;;;;;4886202;29;20056;-92
2024/01/22 10:28:17;;;;;;;10.82;2.25;;;9.50;99.90;;;;;;4884028;29;20048;-91
2024/01/22 10:31:00;;;;;;;5.57;1.63;;;9.50;99.90;;;;;;4868082;29;20460;-93
2024/01/22 10:33:27;;;;;;;6.95;0.88;;;9.50;99.90;;;;;;4869213;29;20045;-91
2024/01/22 10:35:57;;;;;;;15.90;2.30;;;9.50;99.90;;;;;;4862084;29;20152;-91
2024/01/22 10:38:25;;;;;;;9.73;1.40;;;9.50;99.90;;;;;;4885894;29;20135;-92
2024/01/22 10:40:52;;;;;;;10.35;1.33;;;9.50;99.90;;;;;;4885787;29;20075;-91
2024/01/22 10:43:27;;;;;;;9.45;1.65;;;9.50;99.90;;;;;;4885805;29;20048;-90
2024/01/22 10:46:00;;;;;;;9.32;1.15;;;9.50;99.90;;;;;;4883156;29;20135;-92
2024/01/22 10:48:28;;;;;;;11.65;1.48;;;9.50;99.90;;;;;;4897692;29;20080;-90
2024/01/22 10:51:10;;;;;;;8.13;1.65;;;9.50;99.90;;;;;;4887286;29;20045;-89
2024/01/22 10:53:38;;;;;;;13.00;2.38;;;9.50;99.90;;;;;;4900955;29;20064;-90
2024/01/22 10:56:23;;;;;;;7.47;1.45;;;9.50;99.90;;;;;;4885649;29;20054;-90
2024/01/22 10:58:55;;;;;;;6.55;1.10;;;9.50;99.90;;;;;;4867378;29;20410;-90
2024/01/22 11:01:23;;;;;;;22.40;3.23;;;9.50;99.90;;;;;;4891775;29;20059;-91
2024/01/22 11:03:53;;;;;;;14.18;1.85;;;9.50;99.90;;;;;;4882140;29;20337;-89
2024/01/22 11:06:25;;;;;;;16.05;2.17;;;9.50;99.90;;;;;;4859338;29;20104;-89
2024/01/22 11:08:56;;;;;;;16.67;3.20;;;9.40;99.90;;;;;;4884952;29;20052;-89
2024/01/22 11:11:26;;;;;;;16.15;2.45;;;9.40;99.90;;;;;;4869669;29;20088;-89
2024/01/22 11:14:02;;;;;;;10.48;1.65;;;9.50;99.90;;;;;;4881451;29;20049;-88
2024/01/22 11:16:30;;;;;;;12.27;1.60;;;9.50;99.90;;;;;;4881498;29;20053;-89
2024/01/22 11:19:03;;;;;;;8.48;1.70;;;9.60;99.90;;;;;;4881201;29;20053;-88
2024/01/22 11:21:37;;;;;;;16.35;2.33;;;9.60;99.90;;;;;;4885195;29;20049;-88
2024/01/22 11:24:24;;;;;;;12.25;2.00;;;9.60;99.90;;;;;;4901359;29;20382;-91
2024/01/22 11:26:52;;;;;;;14.35;1.77;;;9.70;99.90;;;;;;4901364;29;20055;-91
2024/01/22 11:29:23;;;;;;;11.10;1.80;;;9.70;99.90;;;;;;4900211;29;20048;-87
2024/01/22 11:31:50;;;;;;;14.85;2.70;;;9.80;99.90;;;;;;4899320;29;20057;-87
2024/01/22 11:34:40;;;;;;;17.48;3.13;;;9.70;99.90;;;;;;4884670;29;20056;-86
2024/01/22 11:37:11;;;;;;;16.08;2.30;;;9.80;99.90;;;;;;4885079;29;20381;-86
2024/01/22 11:39:46;;;;;;;17.20;2.85;;;9.80;99.90;;;;;;4880688;29;20053;-84
2024/01/22 11:42:22;;;;;;;17.67;2.17;;;9.80;99.90;;;;;;4887682;29;20580;-86
2024/01/22 11:44:50;;;;;;;21.30;3.67;;;9.80;99.90;;;;;;4899464;29;20100;-86
2024/01/22 11:47:21;;;;;;;22.92;4.20;;;9.80;99.90;;;;;;4865843;29;20064;-87
2024/01/22 11:49:49;;;;;;;13.65;2.28;;;9.80;99.90;;;;;;4893043;29;20100;-85
2024/01/22 11:52:22;;;;;;;18.50;3.45;;;9.80;99.90;;;;;;4899346;29;20051;-84
2024/01/22 11:54:55;;;;;;;18.25;3.08;;;9.80;99.90;;;;;;4900135;29;20084;-84
2024/01/22 11:57:25;;;;;;;25.25;2.72;;;9.80;99.90;;;;;;4883374;29;20049;-84
2024/01/22 11:59:59;;;;;;;19.40;4.80;;;9.90;99.90;;;;;;4883368;29;20080;-84
2024/01/22 12:02:26;;;;;;;13.18;2.38;;;9.90;99.90;;;;;;4898938;29;20099;-83
2024/01/22 12:04:59;;;;;;;20.35;3.33;;;9.90;99.90;;;;;;4879625;29;20097;-84
2024/01/22 12:07:38;;;;;;;20.10;3.47;;;10.00;99.90;;;;;;4885204;29;20048;-85
2024/01/22 12:10:35;;;;;;;19.58;3.45;;;10.00;99.90;;;;;;4882698;29;20044;-75
2024/01/22 12:13:05;;;;;;;19.33;3.25;;;10.10;99.90;;;;;;4887496;29;20032;-74
2024/01/22 12:15:32;;;;;;;16.20;3.50;;;10.10;99.90;;;;;;4898099;29;20511;-74
2024/01/22 12:18:03;;;;;;;16.40;2.92;;;10.10;99.90;;;;;;4897715;29;20029;-74
2024/01/22 12:20:31;;;;;;;19.50;2.88;;;10.10;99.90;;;;;;4867187;29;20143;-74
2024/01/22 12:23:03;;;;;;;16.55;3.10;;;10.10;99.90;;;;;;4890880;29;20382;-74
2024/01/22 12:25:38;;;;;;;27.80;5.20;;;10.20;99.90;;;;;;4899390;29;20062;-74
2024/01/22 12:28:12;;;;;;;25.27;4.28;;;10.20;99.90;;;;;;4894084;29;20148;-74
2024/01/22 12:30:42;;;;;;;16.30;2.90;;;10.20;99.90;;;;;;4897272;29;20044;-75
2024/01/22 12:33:22;;;;;;;24.00;4.80;;;10.30;99.90;;;;;;4882077;29;20060;-74
2024/01/22 12:35:51;;;;;;;18.63;2.47;;;10.30;99.90;;;;;;4898828;29;20064;-74
2024/01/22 12:38:22;;;;;;;18.83;3.92;;;10.30;99.90;;;;;;4881861;29;20044;-74
2024/01/22 12:41:09;;;;;;;23.90;5.03;;;10.30;99.90;;;;;;4897687;29;20051;-75
2024/01/22 12:43:38;;;;;;;21.05;4.13;;;10.30;99.90;;;;;;4883737;29;20050;-75
2024/01/22 12:46:15;;;;;;;14.48;2.20;;;10.20;99.90;;;;;;4881944;29;20044;-74
2024/01/22 12:48:45;;;;;;;20.40;3.75;;;10.30;99.90;;;;;;4895526;29;20037;-76
2024/01/22 12:51:15;;;;;;;19.58;3.55;;;10.20;99.90;;;;;;4897360;29;20040;-74
2024/01/22 12:53:46;;;;;;;17.70;2.80;;;10.20;99.90;;;;;;4894354;29;20059;-74
2024/01/22 12:56:13;;;;;;;20.17;4.47;;;10.20;99.90;;;;;;4879348;29;20049;-75